METAR Data
IDs: Format: Raw Decoded Include TAF

Data at: 0025 UTC 25 Apr 2019

METAR for:KCSQ (Creston Muni, IA, US)
Text:KCSQ 250015Z AUTO 16011KT 7SM CLR 19/11 A2979 RMK AO2
Temperature: 19.0°C ( 66°F)
Dewpoint: 11.0°C ( 52°F) [RH = 60%]
Pressure (altimeter):29.79 inches Hg (1008.9 mb)
Winds:from the SSE (160 degrees) at 13 MPH (11 knots; 5.7 m/s)
Visibility: 7 sm ( 11 km)
Ceiling:at least 12,000 feet AGL
Clouds:sky clear below 12,000 feet AGL
QC Flag:automated observation with no human augmentation